Terminal Aerodrome Forecast
Issued by NWS

Home | Current Version | Previous Version | Text Only | Print | Product List | Glossary On
Versions: 1 2 3 4 5 6 7 8 9 10 11 12 13 14 15 16 17 18 19 20 21 22 23 24 25
000
FTUS46 KSGX 182325
TAFSAN
TAF
KSAN 182325Z 1900/2006 30010KT P6SM FEW020
     FM190300 VRB04KT P6SM SCT015
     FM190800 VRB02KT P6SM BKN015
     FM191600 VRB04KT P6SM SCT018
     FM191900 29010KT P6SM FEW020
     FM200300 VRB04KT P6SM SCT015=

USA.gov is the U.S. government's official web portal to all federal, state and local government web resources and services.